createdAt,value
2018-03-22T00:00:59.628Z,1019.8
2018-03-22T00:02:08.878Z,1019.81
2018-03-22T00:03:17.878Z,1019.8
2018-03-22T00:04:26.617Z,1019.77
2018-03-22T00:05:35.691Z,1019.78
2018-03-22T00:06:44.647Z,1019.76
2018-03-22T00:07:53.367Z,1019.77
2018-03-22T00:09:02.643Z,1019.74
2018-03-22T00:10:11.680Z,1019.76
2018-03-22T00:11:20.935Z,1019.75
2018-03-22T00:12:30.209Z,1019.72
2018-03-22T00:13:39.169Z,1019.69
2018-03-22T00:14:48.391Z,1019.65
2018-03-22T00:15:57.371Z,1019.63
2018-03-22T00:17:06.354Z,1019.61
2018-03-22T00:18:15.667Z,1019.61
2018-03-22T00:19:24.918Z,1019.56
2018-03-22T00:20:33.674Z,1019.56
2018-03-22T00:21:42.667Z,1019.56
2018-03-22T00:22:51.958Z,1019.56
2018-03-22T00:24:00.944Z,1019.52
2018-03-22T00:25:10.181Z,1019.49
2018-03-22T00:26:18.990Z,1019.52
2018-03-22T00:27:28.265Z,1019.52
2018-03-22T00:28:37.247Z,1019.48
2018-03-22T00:29:46.458Z,1019.45
2018-03-22T00:30:55.180Z,1019.42
2018-03-22T00:32:04.437Z,1019.47
2018-03-22T00:33:14.053Z,1019.42
2018-03-22T00:34:23.103Z,1019.47
2018-03-22T00:35:32.463Z,1019.5
2018-03-22T00:36:41.799Z,1019.52
2018-03-22T00:37:50.837Z,1019.49
2018-03-22T00:39:00.332Z,1019.46
2018-03-22T00:40:09.285Z,1019.41
2018-03-22T00:41:18.783Z,1019.33
2018-03-22T00:42:28.573Z,1019.33
2018-03-22T00:43:37.810Z,1019.33
2018-03-22T00:44:47.049Z,1019.33
2018-03-22T00:45:56.046Z,1019.32
2018-03-22T00:47:05.287Z,1019.25
2018-03-22T00:48:14.245Z,1019.23
2018-03-22T00:49:23.295Z,1019.21
2018-03-22T00:50:32.481Z,1019.18
2018-03-22T00:51:41.503Z,1019.19
2018-03-22T00:52:50.756Z,1019.12
2018-03-22T00:53:59.593Z,1019.07
2018-03-22T00:55:08.861Z,1019.05
2018-03-22T00:56:17.865Z,1019.03
2018-03-22T00:57:27.637Z,1019.05
2018-03-22T00:58:36.709Z,1019.04
2018-03-22T00:59:45.955Z,1018.98
2018-03-22T01:00:55.967Z,1018.94
2018-03-22T01:02:04.709Z,1018.92
2018-03-22T01:03:13.422Z,1018.94
2018-03-22T01:04:22.185Z,1018.86
2018-03-22T01:05:31.206Z,1018.84
2018-03-22T01:06:40.446Z,1018.83
2018-03-22T01:07:49.518Z,1018.83
2018-03-22T01:08:58.786Z,1018.78
2018-03-22T01:10:08.342Z,1018.77
2018-03-22T01:11:17.357Z,1018.72
2018-03-22T01:12:26.893Z,1018.7
2018-03-22T01:13:35.865Z,1018.67
2018-03-22T01:14:45.618Z,1018.62
2018-03-22T01:15:54.328Z,1018.58
2018-03-22T01:17:03.037Z,1018.57
2018-03-22T01:18:11.774Z,1018.53
2018-03-22T01:19:20.999Z,1018.52
2018-03-22T01:20:30.017Z,1018.5
2018-03-22T01:21:39.551Z,1018.5
2018-03-22T01:22:49.049Z,1018.48
2018-03-22T01:23:57.933Z,1018.49
2018-03-22T01:25:07.240Z,1018.41
2018-03-22T01:26:16.224Z,1018.41
2018-03-22T01:27:25.751Z,1018.36
2018-03-22T01:28:34.473Z,1018.34
2018-03-22T01:29:43.744Z,1018.33
2018-03-22T01:30:52.982Z,1018.33
2018-03-22T01:32:01.976Z,1018.31
2018-03-22T01:33:11.229Z,1018.32
2018-03-22T01:34:20.745Z,1018.32
2018-03-22T01:35:29.687Z,1018.34
2018-03-22T01:36:38.959Z,1018.29
2018-03-22T01:37:47.693Z,1018.33
2018-03-22T01:38:56.918Z,1018.27
2018-03-22T01:40:06.001Z,1018.24
2018-03-22T01:41:15.239Z,1018.23
2018-03-22T01:42:24.445Z,1018.2
2018-03-22T01:43:33.443Z,1018.2
2018-03-22T01:44:42.969Z,1018.19
2018-03-22T01:45:51.947Z,1018.18
2018-03-22T01:47:00.648Z,1018.18
2018-03-22T01:48:10.127Z,1018.13
2018-03-22T01:49:19.127Z,1018.11
2018-03-22T01:50:28.358Z,1018.09
2018-03-22T01:51:37.386Z,1018.06
2018-03-22T01:52:46.096Z,1018.04
2018-03-22T01:53:55.112Z,1018.01
2018-03-22T01:55:04.403Z,1017.97
2018-03-22T01:56:13.664Z,1017.96
2018-03-22T01:57:22.358Z,1017.89
2018-03-22T01:58:31.059Z,1017.93
2018-03-22T01:59:40.533Z,1017.87
2018-03-22T02:00:49.800Z,1017.9
2018-03-22T02:01:59.019Z,1017.91
2018-03-22T02:03:08.020Z,1017.87
2018-03-22T02:04:17.526Z,1017.8
2018-03-22T02:05:26.518Z,1017.81
2018-03-22T02:06:35.250Z,1017.77
2018-03-22T02:07:44.264Z,1017.72
2018-03-22T02:08:53.730Z,1017.72
2018-03-22T02:10:02.720Z,1017.69
2018-03-22T02:11:11.692Z,1017.64
2018-03-22T02:12:20.682Z,1017.62
2018-03-22T02:13:29.487Z,1017.63
2018-03-22T02:14:38.220Z,1017.57
2018-03-22T02:15:47.179Z,1017.62
2018-03-22T02:16:56.158Z,1017.59
2018-03-22T02:18:05.386Z,1017.59
2018-03-22T02:19:14.123Z,1017.55
2018-03-22T02:20:23.353Z,1017.57
2018-03-22T02:21:32.642Z,1017.51
2018-03-22T02:22:41.910Z,1017.45
2018-03-22T02:23:51.028Z,1017.43
2018-03-22T02:24:59.991Z,1017.4
2018-03-22T02:26:09.015Z,1017.35
2018-03-22T02:27:17.964Z,1017.3
2018-03-22T02:28:26.653Z,1017.26
2018-03-22T02:29:35.430Z,1017.23
2018-03-22T02:30:44.415Z,1017.26
2018-03-22T02:31:53.428Z,1017.19
2018-03-22T02:33:02.715Z,1017.16
2018-03-22T02:34:12.209Z,1017.18
2018-03-22T02:35:20.979Z,1017.16
2018-03-22T02:36:29.712Z,1017.18
2018-03-22T02:37:38.958Z,1017.12
2018-03-22T02:38:48.022Z,1017.13
2018-03-22T02:39:57.247Z,1017.02
2018-03-22T02:41:06.533Z,1017
2018-03-22T02:42:15.500Z,1016.99
2018-03-22T02:43:25.036Z,1016.95
2018-03-22T02:44:34.294Z,1016.85
2018-03-22T02:45:43.841Z,1016.82
2018-03-22T02:46:53.555Z,1016.79
2018-03-22T02:48:02.334Z,1016.77
2018-03-22T02:49:12.153Z,1016.81
2018-03-22T02:50:21.679Z,1016.76
2018-03-22T02:51:30.665Z,1016.74
2018-03-22T02:52:39.922Z,1016.71
2018-03-22T02:53:49.162Z,1016.7
2018-03-22T02:54:58.435Z,1016.66
2018-03-22T02:56:07.938Z,1016.68
2018-03-22T02:57:16.907Z,1016.65
2018-03-22T02:58:25.873Z,1016.66
2018-03-22T02:59:34.865Z,1016.63
2018-03-22T03:00:44.211Z,1016.63
2018-03-22T03:01:53.188Z,1016.63
2018-03-22T03:03:02.200Z,1016.6
2018-03-22T03:04:11.471Z,1016.56
2018-03-22T03:05:20.878Z,1016.59
2018-03-22T03:06:30.692Z,1016.5
2018-03-22T03:07:40.035Z,1016.54
2018-03-22T03:08:49.362Z,1016.54
2018-03-22T03:09:58.447Z,1016.53
2018-03-22T03:11:07.550Z,1016.51
2018-03-22T03:12:16.886Z,1016.49
2018-03-22T03:13:25.995Z,1016.46
2018-03-22T03:14:34.992Z,1016.49
2018-03-22T03:15:44.812Z,1016.49
2018-03-22T03:16:54.302Z,1016.54
2018-03-22T03:18:03.497Z,1016.57
2018-03-22T03:19:12.765Z,1016.61
2018-03-22T03:20:21.796Z,1016.64
2018-03-22T03:21:30.810Z,1016.64
2018-03-22T03:22:39.641Z,1016.62
2018-03-22T03:23:48.963Z,1016.59
2018-03-22T03:24:58.444Z,1016.54
2018-03-22T03:26:07.992Z,1016.54
2018-03-22T03:27:16.958Z,1016.51
2018-03-22T03:28:25.962Z,1016.47
2018-03-22T03:29:35.272Z,1016.46
2018-03-22T03:30:44.360Z,1016.43
2018-03-22T03:31:53.142Z,1016.4
2018-03-22T03:33:01.878Z,1016.36
2018-03-22T03:34:11.425Z,1016.36
2018-03-22T03:35:20.976Z,1016.33
2018-03-22T03:36:30.014Z,1016.32
2018-03-22T03:37:39.282Z,1016.27
2018-03-22T03:38:48.539Z,1016.31
2018-03-22T03:39:57.510Z,1016.3
2018-03-22T03:41:06.887Z,1016.3
2018-03-22T03:42:15.925Z,1016.26
2018-03-22T03:43:25.258Z,1016.28
2018-03-22T03:44:34.522Z,1016.28
2018-03-22T03:45:43.534Z,1016.31
2018-03-22T03:46:52.569Z,1016.3
2018-03-22T03:48:01.546Z,1016.28
2018-03-22T03:49:10.254Z,1016.22
2018-03-22T03:50:19.540Z,1016.17
2018-03-22T03:51:28.765Z,1016.19
2018-03-22T03:52:37.786Z,1016.15
2018-03-22T03:53:46.566Z,1016.11
2018-03-22T03:54:55.326Z,1016.07
2018-03-22T03:56:04.633Z,1016.05
2018-03-22T03:57:13.613Z,1016
2018-03-22T03:58:22.892Z,1016
2018-03-22T03:59:32.410Z,1015.94
2018-03-22T04:00:41.670Z,1015.99
2018-03-22T04:01:51.258Z,1015.91
2018-03-22T04:03:00.617Z,1015.91
2018-03-22T04:04:09.573Z,1015.85
2018-03-22T04:05:18.586Z,1015.84
2018-03-22T04:06:28.321Z,1015.83
2018-03-22T04:07:37.306Z,1015.74
2018-03-22T04:08:46.805Z,1015.7
2018-03-22T04:09:56.058Z,1015.65
2018-03-22T04:11:05.271Z,1015.63
2018-03-22T04:12:14.239Z,1015.61
2018-03-22T04:13:23.225Z,1015.56
2018-03-22T04:14:32.422Z,1015.62
2018-03-22T04:15:41.654Z,1015.59
2018-03-22T04:16:50.943Z,1015.59
2018-03-22T04:17:59.904Z,1015.53
2018-03-22T04:19:09.215Z,1015.55
2018-03-22T04:20:17.981Z,1015.47
2018-03-22T04:21:27.070Z,1015.47
2018-03-22T04:22:36.135Z,1015.54
2018-03-22T04:23:45.181Z,1015.55
2018-03-22T04:24:54.487Z,1015.49
2018-03-22T04:26:03.730Z,1015.49
2018-03-22T04:27:13.046Z,1015.5
2018-03-22T04:28:22.042Z,1015.48
2018-03-22T04:29:31.285Z,1015.45
2018-03-22T04:30:40.268Z,1015.46
2018-03-22T04:31:49.019Z,1015.41
2018-03-22T04:32:58.287Z,1015.39
2018-03-22T04:34:07.329Z,1015.39
2018-03-22T04:35:16.832Z,1015.37
2018-03-22T04:36:25.496Z,1015.38
2018-03-22T04:37:34.276Z,1015.35
2018-03-22T04:38:43.053Z,1015.32
2018-03-22T04:39:52.298Z,1015.31
2018-03-22T04:41:01.814Z,1015.34
2018-03-22T04:42:10.917Z,1015.32
2018-03-22T04:43:19.669Z,1015.26
2018-03-22T04:44:28.977Z,1015.31
2018-03-22T04:45:37.947Z,1015.27
2018-03-22T04:46:47.468Z,1015.29
2018-03-22T04:47:56.249Z,1015.29
2018-03-22T04:49:05.248Z,1015.3
2018-03-22T04:50:13.966Z,1015.29
2018-03-22T04:51:23.211Z,1015.23
2018-03-22T04:52:32.163Z,1015.17
2018-03-22T04:53:41.132Z,1015.23
2018-03-22T04:54:50.368Z,1015.24
2018-03-22T04:55:59.569Z,1015.15
2018-03-22T04:57:08.530Z,1015.13
2018-03-22T04:58:17.345Z,1015.1
2018-03-22T04:59:26.372Z,1015.08
2018-03-22T05:00:35.378Z,1015.05
2018-03-22T05:01:44.707Z,1015.04
2018-03-22T05:02:53.492Z,1015.04
2018-03-22T05:04:02.262Z,1015
2018-03-22T05:05:11.278Z,1015
2018-03-22T05:06:20.046Z,1014.99
2018-03-22T05:07:29.008Z,1014.94
2018-03-22T05:08:37.691Z,1014.96
2018-03-22T05:09:46.673Z,1014.94
2018-03-22T05:10:55.906Z,1014.91
2018-03-22T05:12:04.901Z,1014.9
2018-03-22T05:13:13.893Z,1014.92
2018-03-22T05:14:23.122Z,1014.88
2018-03-22T05:15:32.341Z,1014.9
2018-03-22T05:16:41.076Z,1014.87
2018-03-22T05:17:50.041Z,1014.85
2018-03-22T05:18:59.046Z,1014.83
2018-03-22T05:20:07.757Z,1014.86
2018-03-22T05:21:16.455Z,1014.8
2018-03-22T05:22:25.709Z,1014.83
2018-03-22T05:23:34.924Z,1014.83
2018-03-22T05:24:44.213Z,1014.84
2018-03-22T05:25:53.453Z,1014.81
2018-03-22T05:27:02.688Z,1014.83
2018-03-22T05:28:11.652Z,1014.83
2018-03-22T05:29:21.142Z,1014.83
2018-03-22T05:30:30.357Z,1014.78
2018-03-22T05:31:39.855Z,1014.79
2018-03-22T05:32:49.045Z,1014.79
2018-03-22T05:33:57.968Z,1014.8
2018-03-22T05:35:06.914Z,1014.82
2018-03-22T05:36:16.116Z,1014.75
2018-03-22T05:37:25.361Z,1014.72
2018-03-22T05:38:34.334Z,1014.73
2018-03-22T05:39:43.343Z,1014.71
2018-03-22T05:40:52.636Z,1014.66
2018-03-22T05:42:01.684Z,1014.68
2018-03-22T05:43:10.928Z,1014.64
2018-03-22T05:44:19.944Z,1014.67
2018-03-22T05:45:29.228Z,1014.67
2018-03-22T05:46:38.755Z,1014.67
2018-03-22T05:47:47.501Z,1014.63
2018-03-22T05:48:56.480Z,1014.62
2018-03-22T05:50:05.505Z,1014.58
2018-03-22T05:51:14.484Z,1014.57
2018-03-22T05:52:23.736Z,1014.51
2018-03-22T05:53:33.009Z,1014.51
2018-03-22T05:54:42.092Z,1014.49
2018-03-22T05:55:51.320Z,1014.41
2018-03-22T05:57:00.561Z,1014.41
2018-03-22T05:58:09.790Z,1014.44
2018-03-22T05:59:19.294Z,1014.4
2018-03-22T06:00:28.228Z,1014.45
2018-03-22T06:01:37.280Z,1014.46
2018-03-22T06:02:47.083Z,1014.5
2018-03-22T06:03:56.363Z,1014.48
2018-03-22T06:05:05.358Z,1014.43
2018-03-22T06:06:14.589Z,1014.42
2018-03-22T06:07:23.830Z,1014.41
2018-03-22T06:08:32.560Z,1014.35
2018-03-22T06:09:42.049Z,1014.33
2018-03-22T06:10:51.576Z,1014.33
2018-03-22T06:12:00.599Z,1014.33
2018-03-22T06:13:09.574Z,1014.3
2018-03-22T06:14:18.630Z,1014.25
2018-03-22T06:15:27.369Z,1014.3
2018-03-22T06:16:36.608Z,1014.27
2018-03-22T06:17:45.838Z,1014.35
2018-03-22T06:18:55.355Z,1014.31
2018-03-22T06:20:04.360Z,1014.33
2018-03-22T06:21:13.858Z,1014.36
2018-03-22T06:22:23.082Z,1014.35
2018-03-22T06:23:32.056Z,1014.36
2018-03-22T06:24:41.046Z,1014.44
2018-03-22T06:25:49.736Z,1014.47
2018-03-22T06:26:59.231Z,1014.44
2018-03-22T06:28:08.439Z,1014.45
2018-03-22T06:29:17.909Z,1014.48
2018-03-22T06:30:26.621Z,1014.53
2018-03-22T06:31:35.330Z,1014.5
2018-03-22T06:32:44.660Z,1014.53
2018-03-22T06:33:53.611Z,1014.44
2018-03-22T06:35:02.847Z,1014.46
2018-03-22T06:36:12.055Z,1014.4
2018-03-22T06:37:21.561Z,1014.4
2018-03-22T06:38:30.286Z,1014.4
2018-03-22T06:39:39.005Z,1014.33
2018-03-22T06:40:47.720Z,1014.31
2018-03-22T06:41:56.700Z,1014.28
2018-03-22T06:43:05.695Z,1014.3
2018-03-22T06:44:14.649Z,1014.27
2018-03-22T06:45:23.889Z,1014.31
2018-03-22T06:46:32.863Z,1014.28
2018-03-22T06:47:41.845Z,1014.29
2018-03-22T06:48:50.807Z,1014.24
2018-03-22T06:49:59.527Z,1014.18
2018-03-22T06:51:08.740Z,1014.21
2018-03-22T06:52:17.969Z,1014.17
2018-03-22T06:53:26.665Z,1014.18
2018-03-22T06:54:35.896Z,1014.19
2018-03-22T06:55:44.856Z,1014.13
2018-03-22T06:56:53.879Z,1014.15
2018-03-22T06:58:02.872Z,1014.15
2018-03-22T06:59:12.058Z,1014.11
2018-03-22T07:00:21.031Z,1014.09
2018-03-22T07:01:29.713Z,1014.06
2018-03-22T07:02:38.910Z,1014.02
2018-03-22T07:03:48.370Z,1013.96
2018-03-22T07:04:57.576Z,1013.92
2018-03-22T07:06:07.083Z,1013.91
2018-03-22T07:07:16.021Z,1013.87
2018-03-22T07:08:24.679Z,1013.82
2018-03-22T07:09:33.632Z,1013.83
2018-03-22T07:10:42.590Z,1013.87
2018-03-22T07:11:51.850Z,1013.84
2018-03-22T07:13:00.854Z,1013.83
2018-03-22T07:14:09.882Z,1013.77
2018-03-22T07:15:19.111Z,1013.81
2018-03-22T07:16:27.831Z,1013.79
2018-03-22T07:17:37.010Z,1013.73
2018-03-22T07:18:45.935Z,1013.72
2018-03-22T07:19:55.394Z,1013.73
2018-03-22T07:21:04.878Z,1013.66
2018-03-22T07:22:13.848Z,1013.66
2018-03-22T07:23:23.083Z,1013.68
2018-03-22T07:24:32.052Z,1013.64
2018-03-22T07:25:41.031Z,1013.61
2018-03-22T07:26:50.297Z,1013.62
2018-03-22T07:27:59.297Z,1013.62
2018-03-22T07:29:08.259Z,1013.62
2018-03-22T07:30:17.233Z,1013.54
2018-03-22T07:31:26.288Z,1013.52
2018-03-22T07:32:35.296Z,1013.49
2018-03-22T07:33:44.335Z,1013.48
2018-03-22T07:34:53.581Z,1013.47
2018-03-22T07:36:02.595Z,1013.47
2018-03-22T07:37:11.618Z,1013.44
2018-03-22T07:38:20.672Z,1013.41
2018-03-22T07:39:30.198Z,1013.39
2018-03-22T07:40:39.530Z,1013.42
2018-03-22T07:41:48.557Z,1013.4
2018-03-22T07:42:57.300Z,1013.38
2018-03-22T07:44:06.865Z,1013.35
2018-03-22T07:45:16.389Z,1013.31
2018-03-22T07:46:25.641Z,1013.31
2018-03-22T07:47:34.458Z,1013.26
2018-03-22T07:48:43.542Z,1013.3
2018-03-22T07:49:53.064Z,1013.26
2018-03-22T07:51:02.035Z,1013.25
2018-03-22T07:52:10.752Z,1013.21
2018-03-22T07:53:19.504Z,1013.19
2018-03-22T07:54:28.814Z,1013.18
2018-03-22T07:55:37.629Z,1013.21
2018-03-22T07:56:46.851Z,1013.14
2018-03-22T07:57:56.115Z,1013.15
2018-03-22T07:59:05.344Z,1013.11
2018-03-22T08:00:14.270Z,1013.11
2018-03-22T08:01:23.749Z,1013.11
2018-03-22T08:02:32.517Z,1013.14
2018-03-22T08:03:41.548Z,1013.07
2018-03-22T08:04:50.790Z,1013.1
2018-03-22T08:05:59.752Z,1013.11
2018-03-22T08:07:08.757Z,1013.1
2018-03-22T08:08:17.748Z,1013.1
2018-03-22T08:09:26.702Z,1013.1
2018-03-22T08:10:36.143Z,1013.07
2018-03-22T08:11:45.612Z,1013.09
2018-03-22T08:12:54.563Z,1013.05
2018-03-22T08:14:03.584Z,1013.07
2018-03-22T08:15:12.766Z,1013.09
2018-03-22T08:16:21.495Z,1013.12
2018-03-22T08:17:30.964Z,1013.11
2018-03-22T08:18:40.176Z,1013.1
2018-03-22T08:19:49.155Z,1013.02
2018-03-22T08:20:57.879Z,1013.06
2018-03-22T08:22:06.838Z,1013.04
2018-03-22T08:23:15.796Z,1013.04
2018-03-22T08:24:24.555Z,1013.07
2018-03-22T08:25:33.258Z,1013.02
2018-03-22T08:26:42.557Z,1013
2018-03-22T08:27:51.790Z,1013.02
2018-03-22T08:29:01.274Z,1012.99
2018-03-22T08:30:09.980Z,1012.97
2018-03-22T08:31:19.047Z,1012.97
2018-03-22T08:32:28.504Z,1012.96
2018-03-22T08:33:37.487Z,1012.94
2018-03-22T08:34:46.965Z,1012.93
2018-03-22T08:35:56.030Z,1012.9
2018-03-22T08:37:05.000Z,1012.88
2018-03-22T08:38:14.274Z,1012.87
2018-03-22T08:39:23.321Z,1012.86
2018-03-22T08:40:32.543Z,1012.84
2018-03-22T08:41:41.338Z,1012.85
2018-03-22T08:42:50.693Z,1012.84
2018-03-22T08:43:59.383Z,1012.81
2018-03-22T08:45:08.351Z,1012.8
2018-03-22T08:46:17.585Z,1012.75
2018-03-22T08:47:26.590Z,1012.73
2018-03-22T08:48:35.632Z,1012.73
2018-03-22T08:49:44.621Z,1012.67
2018-03-22T08:50:53.912Z,1012.63
2018-03-22T08:52:03.115Z,1012.58
2018-03-22T08:53:12.130Z,1012.56
2018-03-22T08:54:21.112Z,1012.52
2018-03-22T08:55:30.137Z,1012.48
2018-03-22T08:56:39.636Z,1012.46
2018-03-22T08:57:48.628Z,1012.3
2018-03-22T08:58:57.635Z,1012.35
2018-03-22T09:00:06.369Z,1012.34
2018-03-22T09:01:15.381Z,1012.32
2018-03-22T09:02:24.361Z,1012.32
2018-03-22T09:03:33.833Z,1012.31
2018-03-22T09:04:42.809Z,1012.3
2018-03-22T09:05:51.789Z,1012.29
2018-03-22T09:07:01.034Z,1012.22
2018-03-22T09:08:10.523Z,1012.27
2018-03-22T09:09:19.470Z,1012.25
2018-03-22T09:10:28.675Z,1012.27
2018-03-22T09:11:38.053Z,1012.25
2018-03-22T09:12:46.748Z,1012.21
2018-03-22T09:13:55.694Z,1012.21
2018-03-22T09:15:04.899Z,1012.22
2018-03-22T09:16:14.355Z,1012.22
2018-03-22T09:17:23.585Z,1012.13
2018-03-22T09:18:32.761Z,1012.14
2018-03-22T09:19:42.025Z,1012.13
2018-03-22T09:20:51.241Z,1012.07
2018-03-22T09:22:00.190Z,1012.1
2018-03-22T09:23:08.956Z,1012.03
2018-03-22T09:24:18.211Z,1011.97
2018-03-22T09:25:27.224Z,1011.98
2018-03-22T09:26:36.749Z,1012.02
2018-03-22T09:27:46.036Z,1012.03
2018-03-22T09:28:55.324Z,1012
2018-03-22T09:30:04.600Z,1012.05
2018-03-22T09:31:14.367Z,1012
2018-03-22T09:32:23.367Z,1012.01
2018-03-22T09:33:32.589Z,1011.98
2018-03-22T09:34:41.906Z,1012.02
2018-03-22T09:35:50.920Z,1012.01
2018-03-22T09:37:00.408Z,1012.01
2018-03-22T09:38:09.403Z,1011.99
2018-03-22T09:39:18.384Z,1012.03
2018-03-22T09:40:27.638Z,1011.97
2018-03-22T09:41:37.157Z,1011.97
2018-03-22T09:42:45.886Z,1011.9
2018-03-22T09:43:55.717Z,1011.96
2018-03-22T09:45:05.012Z,1011.92
2018-03-22T09:46:14.280Z,1011.89
2018-03-22T09:47:22.977Z,1011.86
2018-03-22T09:48:31.766Z,1011.89
2018-03-22T09:49:40.476Z,1011.86
2018-03-22T09:50:49.286Z,1011.83
2018-03-22T09:51:58.491Z,1011.9
2018-03-22T09:53:07.719Z,1011.86
2018-03-22T09:54:17.328Z,1011.83
2018-03-22T09:55:26.614Z,1011.89
2018-03-22T09:56:35.854Z,1011.85
2018-03-22T09:57:44.630Z,1011.82
2018-03-22T09:58:53.865Z,1011.83
2018-03-22T10:00:02.834Z,1011.91
2018-03-22T10:01:11.604Z,1011.95
2018-03-22T10:02:20.857Z,1011.94
2018-03-22T10:03:29.843Z,1011.92
2018-03-22T10:04:39.328Z,1011.89
2018-03-22T10:05:48.874Z,1011.91
2018-03-22T10:06:57.863Z,1011.91
2018-03-22T10:08:06.860Z,1011.92
2018-03-22T10:09:15.578Z,1011.9
2018-03-22T10:10:25.111Z,1011.89
2018-03-22T10:11:34.157Z,1011.86
2018-03-22T10:12:43.714Z,1011.82
2018-03-22T10:13:52.937Z,1011.83
2018-03-22T10:15:01.990Z,1011.79
2018-03-22T10:16:11.725Z,1011.79
2018-03-22T10:17:21.273Z,1011.78
2018-03-22T10:18:30.522Z,1011.82
2018-03-22T10:19:39.520Z,1011.78
2018-03-22T10:20:48.774Z,1011.76
2018-03-22T10:21:57.491Z,1011.72
2018-03-22T10:23:06.786Z,1011.66
2018-03-22T10:24:16.038Z,1011.77
2018-03-22T10:25:25.001Z,1011.69
2018-03-22T10:26:34.236Z,1011.72
2018-03-22T10:27:42.902Z,1011.72
2018-03-22T10:28:51.605Z,1011.63
2018-03-22T10:30:00.843Z,1011.72
2018-03-22T10:31:09.545Z,1011.69
2018-03-22T10:32:18.290Z,1011.71
2018-03-22T10:33:27.016Z,1011.68
2018-03-22T10:34:36.225Z,1011.68
2018-03-22T10:35:45.505Z,1011.64
2018-03-22T10:36:54.830Z,1011.62
2018-03-22T10:38:04.354Z,1011.66
2018-03-22T10:39:13.601Z,1011.65
2018-03-22T10:40:22.628Z,1011.6
2018-03-22T10:41:31.574Z,1011.59
2018-03-22T10:42:40.782Z,1011.63
2018-03-22T10:43:50.061Z,1011.61
2018-03-22T10:44:59.052Z,1011.55
2018-03-22T10:46:08.007Z,1011.59
2018-03-22T10:47:17.485Z,1011.58
2018-03-22T10:48:26.720Z,1011.55
2018-03-22T10:49:35.912Z,1011.56
2018-03-22T10:50:45.107Z,1011.55
2018-03-22T10:51:54.095Z,1011.5
2018-03-22T10:53:03.422Z,1011.51
2018-03-22T10:54:12.410Z,1011.51
2018-03-22T10:55:21.151Z,1011.47
2018-03-22T10:56:30.634Z,1011.47
2018-03-22T10:57:39.623Z,1011.48
2018-03-22T10:58:48.635Z,1011.44
2018-03-22T10:59:57.915Z,1011.43
2018-03-22T11:01:06.674Z,1011.43
2018-03-22T11:02:15.967Z,1011.43
2018-03-22T11:03:25.220Z,1011.46
2018-03-22T11:04:34.216Z,1011.46
2018-03-22T11:05:43.241Z,1011.44
2018-03-22T11:06:52.440Z,1011.39
2018-03-22T11:08:02.209Z,1011.37
2018-03-22T11:09:10.904Z,1011.34
2018-03-22T11:10:19.871Z,1011.37
2018-03-22T11:11:28.847Z,1011.3
2018-03-22T11:12:38.096Z,1011.36
2018-03-22T11:13:47.360Z,1011.24
2018-03-22T11:14:56.788Z,1011.25
2018-03-22T11:16:05.748Z,1011.16
2018-03-22T11:17:14.716Z,1011.1
2018-03-22T11:18:24.009Z,1011.1
2018-03-22T11:19:33.022Z,1011.05
2018-03-22T11:20:42.342Z,1011.08
2018-03-22T11:21:51.595Z,1011.03
2018-03-22T11:23:00.869Z,1011.01
2018-03-22T11:24:10.036Z,1011.03
2018-03-22T11:25:19.240Z,1010.94
2018-03-22T11:26:28.147Z,1010.91
2018-03-22T11:27:37.683Z,1010.86
2018-03-22T11:28:46.908Z,1010.83
2018-03-22T11:29:56.156Z,1010.84
2018-03-22T11:31:05.653Z,1010.78
2018-03-22T11:32:14.417Z,1010.74
2018-03-22T11:33:23.055Z,1010.75
2018-03-22T11:34:32.669Z,1010.75
2018-03-22T11:35:41.870Z,1010.75
2018-03-22T11:36:51.371Z,1010.8
2018-03-22T11:38:00.378Z,1010.71
2018-03-22T11:39:09.582Z,1010.76
2018-03-22T11:40:19.101Z,1010.72
2018-03-22T11:41:28.114Z,1010.68
2018-03-22T11:42:37.207Z,1010.68
2018-03-22T11:43:46.492Z,1010.66
2018-03-22T11:44:56.022Z,1010.7
2018-03-22T11:46:04.994Z,1010.66
2018-03-22T11:47:13.982Z,1010.68
2018-03-22T11:48:23.439Z,1010.67
2018-03-22T11:49:33.189Z,1010.68
2018-03-22T11:50:42.157Z,1010.65
2018-03-22T11:51:51.462Z,1010.66
2018-03-22T11:53:00.485Z,1010.68
2018-03-22T11:54:09.511Z,1010.68
2018-03-22T11:55:18.297Z,1010.63
2018-03-22T11:56:27.330Z,1010.58
2018-03-22T11:57:36.011Z,1010.59
2018-03-22T11:58:44.989Z,1010.57
2018-03-22T11:59:54.305Z,1010.54
2018-03-22T12:01:03.508Z,1010.53
2018-03-22T12:02:12.749Z,1010.55
2018-03-22T12:03:22.003Z,1010.58
2018-03-22T12:04:31.267Z,1010.51
2018-03-22T12:05:40.408Z,1010.51
2018-03-22T12:06:49.377Z,1010.48
2018-03-22T12:07:58.365Z,1010.48
2018-03-22T12:09:07.376Z,1010.51
2018-03-22T12:10:16.369Z,1010.51
2018-03-22T12:11:25.348Z,1010.45
2018-03-22T12:12:34.358Z,1010.43
2018-03-22T12:13:43.126Z,1010.42
2018-03-22T12:14:52.605Z,1010.44
2018-03-22T12:16:01.343Z,1010.46
2018-03-22T12:17:10.645Z,1010.44
2018-03-22T12:18:19.620Z,1010.35
2018-03-22T12:19:28.327Z,1010.38
2018-03-22T12:20:37.530Z,1010.35
2018-03-22T12:21:46.571Z,1010.3
2018-03-22T12:22:55.523Z,1010.33
2018-03-22T12:24:04.231Z,1010.3
2018-03-22T12:25:13.474Z,1010.33
2018-03-22T12:26:22.241Z,1010.33
2018-03-22T12:27:31.206Z,1010.28
2018-03-22T12:28:40.963Z,1010.31
2018-03-22T12:29:50.185Z,1010.26
2018-03-22T12:30:59.209Z,1010.28
2018-03-22T12:32:08.312Z,1010.25
2018-03-22T12:33:17.297Z,1010.22
2018-03-22T12:34:26.566Z,1010.22
2018-03-22T12:35:35.819Z,1010.26
2018-03-22T12:36:45.438Z,1010.21
2018-03-22T12:37:54.705Z,1010.2
2018-03-22T12:39:04.300Z,1010.2
2018-03-22T12:40:13.280Z,1010.24
2018-03-22T12:41:22.577Z,1010.18
2018-03-22T12:42:31.563Z,1010.21
2018-03-22T12:43:40.853Z,1010.21
2018-03-22T12:44:50.160Z,1010.25
2018-03-22T12:45:59.158Z,1010.19
2018-03-22T12:47:07.897Z,1010.16
2018-03-22T12:48:16.612Z,1010.13
2018-03-22T12:49:25.636Z,1010.12
2018-03-22T12:50:34.595Z,1010.09
2018-03-22T12:51:44.075Z,1010.12
2018-03-22T12:52:53.317Z,1010.09
2018-03-22T12:54:02.531Z,1010.14
2018-03-22T12:55:12.017Z,1010.15
2018-03-22T12:56:21.234Z,1010.14
2018-03-22T12:57:30.456Z,1010.14
2018-03-22T12:58:39.433Z,1010.14
2018-03-22T12:59:48.430Z,1010.12
2018-03-22T13:00:57.394Z,1010.14
2018-03-22T13:02:06.390Z,1010.11
2018-03-22T13:03:15.067Z,1010.13
2018-03-22T13:04:24.016Z,1010.12
2018-03-22T13:05:33.529Z,1010.14
2018-03-22T13:06:42.207Z,1010.1
2018-03-22T13:07:51.405Z,1010.11
2018-03-22T13:09:00.632Z,1010.13
2018-03-22T13:10:10.177Z,1010.16
2018-03-22T13:11:19.406Z,1010.14
2018-03-22T13:12:28.617Z,1010.12
2018-03-22T13:13:38.404Z,1010.09
2018-03-22T13:14:47.197Z,1010.11
2018-03-22T13:15:56.275Z,1010.1
2018-03-22T13:17:04.979Z,1010.14
2018-03-22T13:18:13.715Z,1010.04
2018-03-22T13:19:22.732Z,1010.05
2018-03-22T13:20:31.994Z,1010.09
2018-03-22T13:21:41.319Z,1010.07
2018-03-22T13:22:50.632Z,1010.05
2018-03-22T13:23:59.651Z,1010.04
2018-03-22T13:25:09.189Z,1010.05
2018-03-22T13:26:18.426Z,1010.06
2018-03-22T13:27:27.224Z,1010.04
2018-03-22T13:28:36.513Z,1010.05
2018-03-22T13:29:46.013Z,1010.05
2018-03-22T13:30:55.375Z,1010.07
2018-03-22T13:32:04.345Z,1010.07
2018-03-22T13:33:14.104Z,1010.08
2018-03-22T13:34:23.096Z,1010.05
2018-03-22T13:35:32.344Z,1010.05
2018-03-22T13:36:41.814Z,1010.05
2018-03-22T13:37:50.783Z,1010.04
2018-03-22T13:39:00.020Z,1010.02
2018-03-22T13:40:08.958Z,1010.06
2018-03-22T13:41:18.236Z,1010.02
2018-03-22T13:42:27.727Z,1010.04
2018-03-22T13:43:37.032Z,1010.02
2018-03-22T13:44:46.532Z,1009.97
2018-03-22T13:45:56.129Z,1010
2018-03-22T13:47:05.287Z,1009.96
2018-03-22T13:48:14.864Z,1009.95
2018-03-22T13:49:23.701Z,1009.93
2018-03-22T13:50:32.345Z,1009.93
2018-03-22T13:51:41.955Z,1009.94
2018-03-22T13:52:50.653Z,1009.95
2018-03-22T13:53:59.673Z,1009.99
2018-03-22T13:55:08.617Z,1009.95
2018-03-22T13:56:17.557Z,1009.95
2018-03-22T13:57:26.755Z,1009.94
2018-03-22T13:58:35.947Z,1009.93
2018-03-22T13:59:44.629Z,1009.94